createdAt,value
2023-04-21T00:02:21.868Z,12.20
2023-04-21T00:04:50.169Z,10.75
2023-04-21T00:07:20.091Z,9.65
2023-04-21T00:09:47.964Z,17.20
2023-04-21T00:12:18.441Z,7.30
2023-04-21T00:14:46.156Z,9.82
2023-04-21T00:17:13.963Z,16.20
2023-04-21T00:19:42.408Z,10.63
2023-04-21T00:22:15.072Z,10.85
2023-04-21T00:24:42.746Z,9.80
2023-04-21T00:27:11.533Z,10.50
2023-04-21T00:29:40.475Z,14.52
2023-04-21T00:32:10.005Z,7.70
2023-04-21T00:34:37.780Z,18.77
2023-04-21T00:37:05.602Z,12.75
2023-04-21T00:39:33.399Z,15.00
2023-04-21T00:42:03.627Z,13.05
2023-04-21T00:44:31.521Z,11.98
2023-04-21T00:46:59.423Z,14.10
2023-04-21T00:49:27.207Z,11.90
2023-04-21T00:51:55.341Z,13.98
2023-04-21T00:54:26.157Z,11.77
2023-04-21T00:56:54.162Z,18.58
2023-04-21T00:59:21.979Z,27.50
2023-04-21T01:01:50.551Z,10.32
2023-04-21T01:04:18.482Z,13.00
2023-04-21T01:06:46.629Z,19.48
2023-04-21T01:09:16.888Z,18.13
2023-04-21T01:12:02.330Z,9.52
2023-04-21T01:14:30.225Z,10.55
2023-04-21T01:16:58.520Z,12.70
2023-04-21T01:19:27.726Z,14.70
2023-04-21T01:21:57.797Z,10.48
2023-04-21T01:24:25.796Z,11.35
2023-04-21T01:26:53.592Z,14.07
2023-04-21T01:29:23.478Z,12.90
2023-04-21T01:34:19.159Z,9.57
2023-04-21T01:36:46.836Z,14.30
2023-04-21T01:39:14.531Z,10.95
2023-04-21T01:41:42.273Z,14.93
2023-04-21T01:44:10.056Z,12.82
2023-04-21T01:46:38.680Z,15.40
2023-04-21T01:49:09.187Z,13.50
2023-04-21T01:51:37.024Z,14.48
2023-04-21T01:54:04.774Z,14.82
2023-04-21T01:56:32.772Z,22.10
2023-04-21T01:59:04.125Z,12.55
2023-04-21T02:01:32.832Z,8.65
2023-04-21T02:04:00.957Z,10.07
2023-04-21T02:06:28.917Z,24.50
2023-04-21T02:08:56.691Z,15.48
2023-04-21T02:11:27.703Z,9.80
2023-04-21T02:13:55.815Z,18.00
2023-04-21T02:16:27.288Z,13.00
2023-04-21T02:18:55.232Z,23.40
2023-04-21T02:21:23.108Z,15.23
2023-04-21T02:23:51.272Z,19.40
2023-04-21T02:26:19.113Z,21.65
2023-04-21T02:28:46.898Z,14.80
2023-04-21T02:31:14.789Z,13.32
2023-04-21T02:33:42.492Z,11.05
2023-04-21T02:36:10.274Z,12.88
2023-04-21T02:38:38.010Z,13.85
2023-04-21T02:41:05.880Z,15.65
2023-04-21T02:43:33.715Z,8.85
2023-04-21T02:46:01.481Z,13.88
2023-04-21T02:48:29.346Z,16.00
2023-04-21T02:50:57.211Z,12.35
2023-04-21T02:53:24.958Z,13.07
2023-04-21T02:55:52.787Z,10.30
2023-04-21T02:58:23.084Z,14.32
2023-04-21T03:00:52.088Z,11.93
2023-04-21T03:03:21.667Z,18.30
2023-04-21T03:05:49.787Z,10.80
2023-04-21T03:08:17.641Z,13.02
2023-04-21T03:10:45.541Z,16.17
2023-04-21T03:13:13.308Z,9.57
2023-04-21T03:15:41.025Z,10.32
2023-04-21T03:18:08.758Z,17.73
2023-04-21T03:20:39.060Z,12.48
2023-04-21T03:23:09.127Z,11.20
2023-04-21T03:25:36.978Z,17.55
2023-04-21T03:28:04.952Z,15.48
2023-04-21T03:30:35.073Z,11.30
2023-04-21T03:33:05.490Z,11.05
2023-04-21T03:35:34.443Z,12.13
2023-04-21T03:38:03.990Z,12.20
2023-04-21T03:40:32.226Z,14.80
2023-04-21T03:42:59.979Z,9.70
2023-04-21T03:45:27.649Z,9.27
2023-04-21T03:47:55.926Z,15.68
2023-04-21T03:50:23.899Z,15.60
2023-04-21T03:52:51.703Z,15.60
2023-04-21T03:55:19.751Z,10.48
2023-04-21T03:57:47.524Z,7.78
2023-04-21T04:00:16.325Z,10.68
2023-04-21T04:02:44.351Z,11.68
2023-04-21T04:05:12.461Z,17.90
2023-04-21T04:07:40.400Z,8.68
2023-04-21T04:10:08.307Z,9.80
2023-04-21T04:12:36.044Z,15.95
2023-04-21T04:15:03.836Z,12.48
2023-04-21T04:17:31.757Z,9.10
2023-04-21T04:19:59.762Z,9.85
2023-04-21T04:22:29.963Z,12.07
2023-04-21T04:25:01.541Z,9.60
2023-04-21T04:27:29.602Z,10.27
2023-04-21T04:30:00.649Z,12.63
2023-04-21T04:32:28.879Z,9.50
2023-04-21T04:34:56.731Z,27.50
2023-04-21T04:37:25.496Z,17.13
2023-04-21T04:39:56.824Z,11.07
2023-04-21T04:42:25.351Z,19.95
2023-04-21T04:44:57.410Z,12.15
2023-04-21T04:47:25.180Z,18.92
2023-04-21T04:49:53.006Z,14.32
2023-04-21T04:52:20.843Z,11.93
2023-04-21T04:54:48.547Z,19.65
2023-04-21T04:57:16.380Z,21.15
2023-04-21T04:59:44.323Z,14.02
2023-04-21T05:02:13.209Z,23.50
2023-04-21T05:04:41.340Z,23.50
2023-04-21T05:07:09.596Z,14.23
2023-04-21T05:09:37.432Z,16.13
2023-04-21T05:12:05.110Z,24.38
2023-04-21T05:14:32.993Z,21.00
2023-04-21T05:17:00.746Z,17.52
2023-04-21T05:19:31.011Z,65.55
2023-04-21T05:22:01.914Z,27.20
2023-04-21T05:24:29.818Z,36.45
2023-04-21T05:26:57.617Z,10.85
2023-04-21T05:29:25.708Z,28.83
2023-04-21T05:31:53.609Z,28.58
2023-04-21T05:34:21.886Z,56.47
2023-04-21T05:36:50.252Z,38.38
2023-04-21T05:39:18.113Z,54.35
2023-04-21T05:41:45.905Z,26.60
2023-04-21T05:44:13.868Z,42.28
2023-04-21T05:46:41.861Z,25.48
2023-04-21T05:49:09.914Z,36.30
2023-04-21T05:51:37.763Z,34.83
2023-04-21T05:54:14.642Z,52.10
2023-04-21T05:56:42.617Z,80.53
2023-04-21T05:59:10.426Z,74.15
2023-04-21T06:01:38.893Z,44.47
2023-04-21T06:04:08.018Z,50.17
2023-04-21T06:06:36.140Z,54.58
2023-04-21T06:09:04.038Z,24.83
2023-04-21T06:11:32.313Z,42.50
2023-04-21T06:14:02.559Z,37.63
2023-04-21T06:16:32.663Z,28.67
2023-04-21T06:19:00.557Z,25.10
2023-04-21T06:21:28.748Z,23.90
2023-04-21T06:23:56.759Z,33.92
2023-04-21T06:26:24.975Z,30.02
2023-04-21T06:28:52.713Z,34.03
2023-04-21T06:31:23.240Z,26.00
2023-04-21T06:33:51.169Z,26.55
2023-04-21T06:36:18.956Z,39.80
2023-04-21T06:38:48.207Z,29.48
2023-04-21T06:41:17.445Z,40.72
2023-04-21T06:43:46.876Z,55.08
2023-04-21T06:46:14.733Z,44.13
2023-04-21T06:48:42.701Z,44.92
2023-04-21T06:51:10.501Z,29.23
2023-04-21T06:53:38.452Z,25.55
2023-04-21T06:56:06.516Z,38.83
2023-04-21T06:58:34.260Z,24.95
2023-04-21T07:01:02.497Z,30.83
2023-04-21T07:03:31.087Z,39.67
2023-04-21T07:05:58.856Z,46.63
2023-04-21T07:08:26.549Z,25.52
2023-04-21T07:10:54.661Z,26.08
2023-04-21T07:13:22.635Z,37.08
2023-04-21T07:15:50.747Z,28.95
2023-04-21T07:18:19.013Z,32.50
2023-04-21T07:20:47.811Z,51.22
2023-04-21T07:23:15.704Z,38.10
2023-04-21T07:25:43.831Z,31.15
2023-04-21T07:28:17.166Z,47.78
2023-04-21T07:30:45.252Z,37.55
2023-04-21T07:33:15.858Z,31.85
2023-04-21T07:35:43.921Z,35.90
2023-04-21T07:38:12.181Z,70.43
2023-04-21T07:40:40.052Z,24.92
2023-04-21T07:43:07.911Z,52.08
2023-04-21T07:45:35.744Z,35.22
2023-04-21T07:48:04.005Z,28.00
2023-04-21T07:50:32.148Z,26.65
2023-04-21T07:53:00.333Z,30.83
2023-04-21T07:55:28.381Z,34.33
2023-04-21T07:57:56.705Z,39.72
2023-04-21T08:00:24.686Z,36.05
2023-04-21T08:02:56.639Z,27.65
2023-04-21T08:05:27.443Z,46.33
2023-04-21T08:07:56.644Z,18.77
2023-04-21T08:10:24.946Z,31.30
2023-04-21T08:12:52.727Z,42.60
2023-04-21T08:15:20.689Z,33.65
2023-04-21T08:17:48.448Z,35.83
2023-04-21T08:20:18.940Z,33.80
2023-04-21T08:22:48.306Z,42.13
2023-04-21T08:25:18.859Z,36.13
2023-04-21T08:27:46.700Z,37.00
2023-04-21T08:30:14.787Z,29.48
2023-04-21T08:32:43.518Z,53.08
2023-04-21T08:35:12.030Z,54.80
2023-04-21T08:37:42.256Z,45.85
2023-04-21T08:40:10.224Z,37.50
2023-04-21T08:42:39.175Z,53.25
2023-04-21T08:45:07.464Z,37.60
2023-04-21T08:47:36.251Z,40.58
2023-04-21T08:50:04.056Z,42.22
2023-04-21T08:52:31.853Z,62.90
2023-04-21T08:55:00.141Z,47.53
2023-04-21T08:57:28.082Z,51.03
2023-04-21T08:59:58.493Z,42.33
2023-04-21T09:02:26.923Z,46.45
2023-04-21T09:04:58.129Z,38.85
2023-04-21T09:07:33.861Z,43.38
2023-04-21T09:10:01.905Z,49.45
2023-04-21T09:12:32.251Z,45.83
2023-04-21T09:15:05.613Z,46.65
2023-04-21T09:17:34.027Z,51.63
2023-04-21T09:20:17.716Z,40.35
2023-04-21T09:22:45.847Z,32.88
2023-04-21T09:25:17.585Z,27.65
2023-04-21T09:27:45.759Z,31.45
2023-04-21T09:30:13.619Z,31.30
2023-04-21T09:32:41.788Z,35.00
2023-04-21T09:35:13.068Z,104.72
2023-04-21T09:37:43.615Z,35.72
2023-04-21T09:40:14.461Z,23.80
2023-04-21T09:42:44.486Z,36.15
2023-04-21T09:47:43.988Z,36.78
2023-04-21T09:50:13.401Z,34.92
2023-04-21T09:52:41.329Z,48.38
2023-04-21T09:55:15.733Z,26.10
2023-04-21T09:57:45.311Z,47.45
2023-04-21T10:00:14.551Z,27.13
2023-04-21T10:02:51.832Z,35.92
2023-04-21T10:05:19.800Z,42.10
2023-04-21T10:07:49.284Z,40.90
2023-04-21T10:10:20.228Z,28.48
2023-04-21T10:12:49.176Z,49.70
2023-04-21T10:15:38.079Z,28.55
2023-04-21T10:18:24.049Z,24.00
2023-04-21T10:21:09.274Z,59.22
2023-04-21T10:23:42.415Z,29.52
2023-04-21T10:26:21.638Z,68.53
2023-04-21T10:28:53.316Z,39.13
2023-04-21T10:31:22.384Z,41.60
2023-04-21T10:34:08.735Z,30.55
2023-04-21T10:36:43.324Z,26.58
2023-04-21T10:39:15.792Z,36.38
2023-04-21T10:41:46.604Z,35.10
2023-04-21T10:44:15.003Z,28.13
2023-04-21T10:46:53.298Z,28.10
2023-04-21T10:49:24.353Z,28.30
2023-04-21T10:52:04.368Z,20.05
2023-04-21T10:54:47.342Z,42.30
2023-04-21T10:57:16.067Z,55.88
2023-04-21T10:59:44.810Z,22.02
2023-04-21T11:02:19.849Z,31.00
2023-04-21T11:04:52.173Z,41.08
2023-04-21T11:07:26.534Z,43.28
2023-04-21T11:10:01.443Z,47.30
2023-04-21T11:12:32.277Z,38.75
2023-04-21T11:15:00.496Z,28.63
2023-04-21T11:17:28.468Z,31.58
2023-04-21T11:19:57.457Z,28.42
2023-04-21T11:22:25.805Z,36.95
2023-04-21T11:24:58.672Z,31.67
2023-04-21T11:27:31.519Z,32.15
2023-04-21T11:29:59.489Z,47.10
2023-04-21T11:32:27.515Z,44.97
2023-04-21T11:34:55.860Z,45.90
2023-04-21T11:37:28.188Z,30.88
2023-04-21T11:39:59.680Z,55.95
2023-04-21T11:42:28.054Z,39.55
2023-04-21T11:44:56.960Z,37.42
2023-04-21T11:47:26.746Z,42.78
2023-04-21T11:49:55.379Z,34.58
2023-04-21T11:52:36.276Z,35.03
2023-04-21T11:55:16.305Z,37.65
2023-04-21T11:57:44.401Z,21.63
2023-04-21T12:00:14.136Z,37.03
2023-04-21T12:05:13.716Z,38.17
2023-04-21T12:07:47.994Z,41.40
2023-04-21T12:10:19.843Z,47.38
2023-04-21T12:12:47.808Z,75.70
2023-04-21T12:15:20.409Z,20.83
2023-04-21T12:17:51.146Z,29.25
2023-04-21T12:20:23.574Z,37.78
2023-04-21T12:22:54.329Z,22.20
2023-04-21T12:25:22.192Z,43.22
2023-04-21T12:27:53.551Z,36.95
2023-04-21T12:30:22.001Z,59.05
2023-04-21T12:32:56.170Z,30.15
2023-04-21T12:35:24.213Z,11.68
2023-04-21T12:37:52.340Z,34.35
2023-04-21T12:40:20.291Z,24.20
2023-04-21T12:42:49.172Z,44.60
2023-04-21T12:45:18.843Z,25.70
2023-04-21T12:47:47.123Z,45.15
2023-04-21T12:50:15.209Z,31.42
2023-04-21T12:52:43.519Z,13.63
2023-04-21T12:55:13.841Z,21.70
2023-04-21T12:57:42.016Z,34.90
2023-04-21T13:00:12.570Z,17.48
2023-04-21T13:02:40.669Z,40.83
2023-04-21T13:05:10.255Z,38.42
2023-04-21T13:07:38.158Z,29.20
2023-04-21T13:10:09.666Z,30.77
2023-04-21T13:12:37.432Z,24.70
2023-04-21T13:15:05.585Z,16.65
2023-04-21T13:17:33.766Z,15.45
2023-04-21T13:20:01.790Z,23.33
2023-04-21T13:22:29.718Z,20.75
2023-04-21T13:24:57.712Z,24.30
2023-04-21T13:27:25.684Z,20.67
2023-04-21T13:29:54.485Z,20.02
2023-04-21T13:32:30.371Z,30.73
2023-04-21T13:37:27.045Z,27.33
2023-04-21T13:39:54.894Z,12.90
2023-04-21T13:42:22.760Z,13.07
2023-04-21T13:44:50.781Z,9.05
2023-04-21T13:47:21.933Z,17.35
2023-04-21T13:49:50.272Z,18.17
2023-04-21T13:52:18.507Z,16.92
2023-04-21T13:54:46.374Z,6.93
2023-04-21T13:57:14.530Z,10.13
2023-04-21T13:59:43.396Z,17.20
2023-04-21T14:02:11.358Z,10.88
2023-04-21T14:04:40.146Z,20.40
2023-04-21T14:07:11.790Z,11.93
2023-04-21T14:09:39.723Z,15.18
2023-04-21T14:12:07.584Z,16.42
2023-04-21T14:14:38.742Z,12.70
2023-04-21T14:17:07.965Z,11.90
2023-04-21T14:19:36.362Z,5.78
2023-04-21T14:22:04.538Z,11.85
2023-04-21T14:24:32.582Z,11.82
2023-04-21T14:27:00.595Z,9.68
2023-04-21T14:29:28.526Z,19.00
2023-04-21T14:31:58.071Z,21.75
2023-04-21T14:36:56.403Z,22.45
2023-04-21T14:39:24.377Z,12.57
2023-04-21T14:41:52.363Z,11.73
2023-04-21T14:44:20.265Z,10.65
2023-04-21T14:46:56.966Z,8.23
2023-04-21T14:49:34.069Z,10.77
2023-04-21T14:52:08.891Z,47.10
2023-04-21T14:54:39.291Z,17.27
2023-04-21T14:57:18.841Z,18.48
2023-04-21T14:59:50.791Z,6.93
2023-04-21T15:02:18.862Z,7.60
2023-04-21T15:04:46.940Z,11.05
2023-04-21T15:07:15.454Z,4.93
2023-04-21T15:09:45.922Z,12.07
2023-04-21T15:12:17.262Z,6.38
2023-04-21T15:14:45.397Z,3.83
2023-04-21T15:17:13.625Z,6.05
2023-04-21T15:19:41.700Z,19.40
2023-04-21T15:22:09.818Z,8.77
2023-04-21T15:24:37.692Z,15.40
2023-04-21T15:27:05.646Z,17.45
2023-04-21T15:29:33.774Z,12.65
2023-04-21T15:32:02.008Z,14.85
2023-04-21T15:34:29.828Z,12.60
2023-04-21T15:36:57.583Z,8.82
2023-04-21T15:39:25.455Z,13.52
2023-04-21T15:41:53.743Z,8.57
2023-04-21T15:44:21.869Z,8.50
2023-04-21T15:46:50.710Z,10.02
2023-04-21T15:49:20.024Z,10.80
2023-04-21T15:51:47.990Z,10.27
2023-04-21T15:54:15.890Z,6.90
2023-04-21T15:56:43.873Z,3.00
2023-04-21T15:59:12.104Z,9.88
2023-04-21T16:01:40.117Z,7.93
2023-04-21T16:04:11.218Z,7.32
2023-04-21T16:06:39.468Z,6.57
2023-04-21T16:09:07.617Z,5.80
2023-04-21T16:11:35.637Z,9.52
2023-04-21T16:14:03.526Z,11.73
2023-04-21T16:16:31.675Z,6.05
2023-04-21T16:18:59.527Z,4.82
2023-04-21T16:21:27.981Z,8.52
2023-04-21T16:23:55.916Z,11.85
2023-04-21T16:26:23.683Z,19.42
2023-04-21T16:28:54.381Z,12.35
2023-04-21T16:31:22.513Z,8.52
2023-04-21T16:33:52.714Z,7.70
2023-04-21T16:36:21.634Z,11.90
2023-04-21T16:38:49.744Z,7.35
2023-04-21T16:41:20.341Z,4.13
2023-04-21T16:43:48.958Z,3.95
2023-04-21T16:46:17.432Z,2.63
2023-04-21T16:48:45.453Z,6.50
2023-04-21T16:51:14.114Z,5.18
2023-04-21T16:53:42.744Z,6.72
2023-04-21T16:56:10.632Z,5.43
2023-04-21T16:58:39.064Z,10.80
2023-04-21T17:01:07.855Z,4.20
2023-04-21T17:03:37.031Z,8.98
2023-04-21T17:06:09.574Z,5.00
2023-04-21T17:08:37.553Z,2.17
2023-04-21T17:11:05.476Z,6.00
2023-04-21T17:13:35.514Z,5.90
2023-04-21T17:16:03.503Z,10.48
2023-04-21T17:18:31.160Z,3.80
2023-04-21T17:20:59.041Z,5.97
2023-04-21T17:23:26.822Z,7.88
2023-04-21T17:25:57.820Z,8.20
2023-04-21T17:28:25.950Z,11.05
2023-04-21T17:31:00.460Z,6.82
2023-04-21T17:33:35.315Z,9.80
2023-04-21T17:36:03.720Z,8.45
2023-04-21T17:38:32.222Z,10.07
2023-04-21T17:41:04.738Z,14.00
2023-04-21T17:43:32.666Z,8.80
2023-04-21T17:46:00.562Z,12.13
2023-04-21T17:48:28.535Z,13.25
2023-04-21T17:50:56.357Z,6.93
2023-04-21T17:53:24.338Z,7.22
2023-04-21T17:55:52.892Z,6.95
2023-04-21T17:58:21.078Z,7.60
2023-04-21T18:00:49.859Z,10.05
2023-04-21T18:03:18.458Z,9.10
2023-04-21T18:05:46.506Z,5.75
2023-04-21T18:08:14.624Z,16.23
2023-04-21T18:10:42.879Z,10.07
2023-04-21T18:13:10.669Z,10.52
2023-04-21T18:15:38.420Z,9.20
2023-04-21T18:18:06.601Z,12.38
2023-04-21T18:20:35.351Z,10.45
2023-04-21T18:23:03.225Z,12.30
2023-04-21T18:25:42.138Z,15.43
2023-04-21T18:28:11.600Z,10.02
2023-04-21T18:30:42.582Z,10.80
2023-04-21T18:33:12.855Z,15.60
2023-04-21T18:35:42.548Z,27.77
2023-04-21T18:38:11.877Z,20.30
2023-04-21T18:40:40.884Z,37.05
2023-04-21T18:43:09.804Z,54.28
2023-04-21T18:45:38.078Z,62.72
2023-04-21T18:48:06.023Z,43.53
2023-04-21T18:50:37.314Z,49.38
2023-04-21T18:53:05.701Z,33.08
2023-04-21T18:55:33.630Z,30.77
2023-04-21T18:58:04.425Z,28.23
2023-04-21T19:00:37.524Z,27.75
2023-04-21T19:03:06.839Z,20.63
2023-04-21T19:05:36.032Z,18.98
2023-04-21T19:08:03.905Z,22.83
2023-04-21T19:10:35.166Z,22.90
2023-04-21T19:13:02.979Z,18.05
2023-04-21T19:15:30.723Z,18.90
2023-04-21T19:17:58.511Z,15.35
2023-04-21T19:20:26.680Z,25.13
2023-04-21T19:22:54.508Z,15.57
2023-04-21T19:25:22.347Z,12.90
2023-04-21T19:27:50.134Z,15.27
2023-04-21T19:30:17.970Z,12.25
2023-04-21T19:32:45.785Z,12.85
2023-04-21T19:35:16.748Z,13.57
2023-04-21T19:37:45.004Z,16.40
2023-04-21T19:40:13.116Z,40.05
2023-04-21T19:42:41.936Z,46.78
2023-04-21T19:45:10.422Z,24.83
2023-04-21T19:47:38.448Z,32.00
2023-04-21T19:50:07.923Z,26.10
2023-04-21T19:52:35.784Z,25.73
2023-04-21T19:55:04.664Z,38.63
2023-04-21T19:57:32.325Z,25.92
2023-04-21T20:00:00.309Z,28.98
2023-04-21T20:02:28.636Z,34.63
2023-04-21T20:04:56.654Z,51.50
2023-04-21T20:07:25.098Z,41.15
2023-04-21T20:09:52.960Z,50.28
2023-04-21T20:12:23.800Z,113.07
2023-04-21T20:14:54.146Z,109.88
2023-04-21T20:17:21.929Z,100.32
2023-04-21T20:19:49.734Z,116.75
2023-04-21T20:22:17.456Z,126.43
2023-04-21T20:24:45.227Z,120.65
2023-04-21T20:27:12.940Z,152.00
2023-04-21T20:29:40.712Z,120.43
2023-04-21T20:32:08.450Z,140.95
2023-04-21T20:34:36.427Z,113.40
2023-04-21T20:37:05.405Z,103.65
2023-04-21T20:39:33.113Z,78.10
2023-04-21T20:42:11.986Z,49.53
2023-04-21T20:44:42.658Z,64.10
2023-04-21T20:47:11.447Z,78.10
2023-04-21T20:49:39.995Z,175.50
2023-04-21T20:52:07.988Z,163.38
2023-04-21T20:54:35.679Z,251.93
2023-04-21T20:57:03.623Z,64.80
2023-04-21T20:59:31.548Z,28.60
2023-04-21T21:01:59.965Z,26.80
2023-04-21T21:04:27.950Z,46.03
2023-04-21T21:06:56.316Z,45.28
2023-04-21T21:09:24.155Z,54.45
2023-04-21T21:11:51.931Z,108.47
2023-04-21T21:14:19.862Z,85.50
2023-04-21T21:16:47.660Z,77.60
2023-04-21T21:19:15.596Z,66.65
2023-04-21T21:21:43.386Z,81.30
2023-04-21T21:24:11.644Z,81.22
2023-04-21T21:26:42.513Z,72.97
2023-04-21T21:29:10.766Z,86.65
2023-04-21T21:31:38.662Z,74.13
2023-04-21T21:34:06.693Z,49.15
2023-04-21T21:36:34.564Z,47.88
2023-04-21T21:39:02.267Z,65.72
2023-04-21T21:41:31.112Z,80.93
2023-04-21T21:43:59.028Z,52.20
2023-04-21T21:46:29.446Z,54.05
2023-04-21T21:48:57.270Z,54.35
2023-04-21T21:51:24.995Z,45.88
2023-04-21T21:53:52.770Z,52.17
2023-04-21T21:56:20.525Z,41.40
2023-04-21T21:58:48.373Z,43.85
2023-04-21T22:01:18.328Z,52.88
2023-04-21T22:03:47.807Z,47.40
2023-04-21T22:06:18.969Z,69.10
2023-04-21T22:08:46.972Z,62.58
2023-04-21T22:11:14.810Z,46.45
2023-04-21T22:13:42.823Z,57.58
2023-04-21T22:16:12.979Z,62.17
2023-04-21T22:18:40.789Z,51.38
2023-04-21T22:21:08.641Z,58.00
2023-04-21T22:23:36.737Z,51.08
2023-04-21T22:26:04.912Z,57.97
2023-04-21T22:28:32.846Z,54.03
2023-04-21T22:31:00.850Z,54.80
2023-04-21T22:33:28.729Z,54.20
2023-04-21T22:35:56.507Z,91.22
2023-04-21T22:38:24.278Z,85.40
2023-04-21T22:40:52.173Z,40.60
2023-04-21T22:43:20.106Z,27.90
2023-04-21T22:45:48.782Z,31.95
2023-04-21T22:48:17.166Z,26.95
2023-04-21T22:50:44.994Z,21.73
2023-04-21T22:53:13.508Z,24.63
2023-04-21T22:55:43.756Z,18.27
2023-04-21T22:58:14.316Z,24.83
2023-04-21T23:00:45.243Z,25.05
2023-04-21T23:03:16.122Z,22.83
2023-04-21T23:05:43.900Z,21.42
2023-04-21T23:08:11.635Z,23.40
2023-04-21T23:10:39.477Z,20.00
2023-04-21T23:13:07.238Z,15.07
2023-04-21T23:15:35.026Z,16.30
2023-04-21T23:18:03.069Z,18.42
2023-04-21T23:20:31.211Z,18.30
2023-04-21T23:23:02.024Z,21.00
2023-04-21T23:25:30.014Z,20.27
2023-04-21T23:27:57.760Z,16.90
2023-04-21T23:30:25.546Z,20.10
2023-04-21T23:32:53.683Z,22.75
2023-04-21T23:35:21.547Z,15.70
2023-04-21T23:37:49.360Z,18.83
2023-04-21T23:40:17.155Z,18.63
2023-04-21T23:42:47.987Z,15.57
2023-04-21T23:45:16.029Z,10.15
2023-04-21T23:47:44.089Z,15.48
2023-04-21T23:50:12.619Z,11.90
2023-04-21T23:52:42.288Z,12.25
2023-04-21T23:55:12.193Z,13.00
